sensor_id;sensor_type;location;lat;lon;timestamp;pressure;altitude;pressure_sealevel;temperature
71649;BMP180;59492;45.638;11.714;2022-11-20T00:01:09;100267.00;;;18.60
71649;BMP180;59492;45.638;11.714;2022-11-20T00:03:35;100266.80;;;18.58
71649;BMP180;59492;45.638;11.714;2022-11-20T00:06:02;100266.80;;;18.56
71649;BMP180;59492;45.638;11.714;2022-11-20T00:08:28;100262.20;;;18.50
71649;BMP180;59492;45.638;11.714;2022-11-20T00:10:54;100261.00;;;18.50
71649;BMP180;59492;45.638;11.714;2022-11-20T00:13:20;100262.80;;;18.50
71649;BMP180;59492;45.638;11.714;2022-11-20T00:15:45;100260.20;;;18.50
71649;BMP180;59492;45.638;11.714;2022-11-20T00:18:11;100262.20;;;18.54
71649;BMP180;59492;45.638;11.714;2022-11-20T00:20:36;100262.60;;;18.60
71649;BMP180;59492;45.638;11.714;2022-11-20T00:23:02;100265.40;;;18.56
71649;BMP180;59492;45.638;11.714;2022-11-20T00:25:27;100258.20;;;18.52
71649;BMP180;59492;45.638;11.714;2022-11-20T00:27:53;100261.80;;;18.50
71649;BMP180;59492;45.638;11.714;2022-11-20T00:30:18;100266.00;;;18.50
71649;BMP180;59492;45.638;11.714;2022-11-20T00:32:44;100266.00;;;18.50
71649;BMP180;59492;45.638;11.714;2022-11-20T00:35:09;100273.00;;;18.50
71649;BMP180;59492;45.638;11.714;2022-11-20T00:37:35;100276.00;;;18.50
71649;BMP180;59492;45.638;11.714;2022-11-20T00:40:00;100280.00;;;18.50
71649;BMP180;59492;45.638;11.714;2022-11-20T00:42:26;100280.80;;;18.54
71649;BMP180;59492;45.638;11.714;2022-11-20T00:44:52;100276.60;;;18.50
71649;BMP180;59492;45.638;11.714;2022-11-20T00:47:17;100277.20;;;18.50
71649;BMP180;59492;45.638;11.714;2022-11-20T00:49:43;100278.40;;;18.50
71649;BMP180;59492;45.638;11.714;2022-11-20T00:52:08;100275.80;;;18.50
71649;BMP180;59492;45.638;11.714;2022-11-20T00:54:34;100279.00;;;18.48
71649;BMP180;59492;45.638;11.714;2022-11-20T00:57:00;100279.60;;;18.44
71649;BMP180;59492;45.638;11.714;2022-11-20T00:59:25;100281.00;;;18.44
71649;BMP180;59492;45.638;11.714;2022-11-20T01:01:51;100280.00;;;18.50
71649;BMP180;59492;45.638;11.714;2022-11-20T01:04:16;100278.60;;;18.50
71649;BMP180;59492;45.638;11.714;2022-11-20T01:06:42;100284.00;;;18.50
71649;BMP180;59492;45.638;11.714;2022-11-20T01:09:11;100291.00;;;18.50
71649;BMP180;59492;45.638;11.714;2022-11-20T01:11:39;100294.60;;;18.48
71649;BMP180;59492;45.638;11.714;2022-11-20T01:14:09;100292.40;;;18.46
71649;BMP180;59492;45.638;11.714;2022-11-20T01:16:37;100288.80;;;18.40
71649;BMP180;59492;45.638;11.714;2022-11-20T01:19:06;100285.60;;;18.40
71649;BMP180;59492;45.638;11.714;2022-11-20T01:21:37;100284.20;;;18.40
71649;BMP180;59492;45.638;11.714;2022-11-20T01:24:05;100283.00;;;18.40
71649;BMP180;59492;45.638;11.714;2022-11-20T01:26:37;100287.20;;;18.44
71649;BMP180;59492;45.638;11.714;2022-11-20T01:29:04;100290.20;;;18.50
71649;BMP180;59492;45.638;11.714;2022-11-20T01:31:32;100287.60;;;18.50
71649;BMP180;59492;45.638;11.714;2022-11-20T01:34:01;100289.80;;;18.44
71649;BMP180;59492;45.638;11.714;2022-11-20T01:36:28;100290.00;;;18.40
71649;BMP180;59492;45.638;11.714;2022-11-20T01:38:58;100289.80;;;18.40
71649;BMP180;59492;45.638;11.714;2022-11-20T01:41:25;100290.60;;;18.40
71649;BMP180;59492;45.638;11.714;2022-11-20T01:44:11;100295.60;;;18.36
71649;BMP180;59492;45.638;11.714;2022-11-20T01:52:05;100305.40;;;18.40
71649;BMP180;59492;45.638;11.714;2022-11-20T01:54:40;100310.40;;;18.40
71649;BMP180;59492;45.638;11.714;2022-11-20T01:57:09;100309.20;;;18.40
71649;BMP180;59492;45.638;11.714;2022-11-20T01:59:37;100310.20;;;18.40
71649;BMP180;59492;45.638;11.714;2022-11-20T02:02:06;100308.40;;;18.38
71649;BMP180;59492;45.638;11.714;2022-11-20T02:04:31;100318.60;;;18.40
71649;BMP180;59492;45.638;11.714;2022-11-20T02:07:00;100316.80;;;18.34
71649;BMP180;59492;45.638;11.714;2022-11-20T02:09:27;100318.00;;;18.32
71649;BMP180;59492;45.638;11.714;2022-11-20T02:11:53;100319.20;;;18.40
71649;BMP180;59492;45.638;11.714;2022-11-20T02:14:19;100318.20;;;18.40
71649;BMP180;59492;45.638;11.714;2022-11-20T02:16:47;100318.60;;;18.38
71649;BMP180;59492;45.638;11.714;2022-11-20T02:19:33;100323.80;;;18.32
71649;BMP180;59492;45.638;11.714;2022-11-20T02:22:08;100323.20;;;18.30
71649;BMP180;59492;45.638;11.714;2022-11-20T02:24:37;100330.00;;;18.30
71649;BMP180;59492;45.638;11.714;2022-11-20T02:27:08;100331.60;;;18.30
71649;BMP180;59492;45.638;11.714;2022-11-20T02:32:29;100325.20;;;18.30
71649;BMP180;59492;45.638;11.714;2022-11-20T02:34:55;100321.20;;;18.30
71649;BMP180;59492;45.638;11.714;2022-11-20T02:37:22;100325.00;;;18.38
71649;BMP180;59492;45.638;11.714;2022-11-20T02:39:50;100331.40;;;18.32
71649;BMP180;59492;45.638;11.714;2022-11-20T02:42:16;100329.80;;;18.30
71649;BMP180;59492;45.638;11.714;2022-11-20T02:44:42;100327.40;;;18.30
71649;BMP180;59492;45.638;11.714;2022-11-20T02:47:08;100324.20;;;18.30
71649;BMP180;59492;45.638;11.714;2022-11-20T02:49:34;100327.60;;;18.28
71649;BMP180;59492;45.638;11.714;2022-11-20T02:51:59;100328.00;;;18.30
71649;BMP180;59492;45.638;11.714;2022-11-20T02:54:25;100326.80;;;18.28
71649;BMP180;59492;45.638;11.714;2022-11-20T02:56:51;100328.40;;;18.28
71649;BMP180;59492;45.638;11.714;2022-11-20T02:59:17;100330.40;;;18.30
71649;BMP180;59492;45.638;11.714;2022-11-20T03:01:42;100332.80;;;18.30
71649;BMP180;59492;45.638;11.714;2022-11-20T03:04:08;100331.60;;;18.30
71649;BMP180;59492;45.638;11.714;2022-11-20T03:06:33;100331.00;;;18.30
71649;BMP180;59492;45.638;11.714;2022-11-20T03:08:59;100331.20;;;18.30
71649;BMP180;59492;45.638;11.714;2022-11-20T03:11:25;100328.80;;;18.28
71649;BMP180;59492;45.638;11.714;2022-11-20T03:13:50;100329.40;;;18.26
71649;BMP180;59492;45.638;11.714;2022-11-20T03:16:18;100332.00;;;18.20
71649;BMP180;59492;45.638;11.714;2022-11-20T03:18:45;100334.00;;;18.20
71649;BMP180;59492;45.638;11.714;2022-11-20T03:21:12;100337.60;;;18.20
71649;BMP180;59492;45.638;11.714;2022-11-20T03:23:39;100336.80;;;18.20
71649;BMP180;59492;45.638;11.714;2022-11-20T03:26:10;100338.00;;;18.30
71649;BMP180;59492;45.638;11.714;2022-11-20T03:28:36;100342.00;;;18.28
71649;BMP180;59492;45.638;11.714;2022-11-20T03:31:07;100341.40;;;18.24
71649;BMP180;59492;45.638;11.714;2022-11-20T03:33:33;100343.40;;;18.20
71649;BMP180;59492;45.638;11.714;2022-11-20T03:36:03;100347.00;;;18.20
71649;BMP180;59492;45.638;11.714;2022-11-20T03:38:30;100344.20;;;18.20
71649;BMP180;59492;45.638;11.714;2022-11-20T03:41:13;100348.60;;;18.20
71649;BMP180;59492;45.638;11.714;2022-11-20T03:43:39;100346.20;;;18.16
71649;BMP180;59492;45.638;11.714;2022-11-20T03:46:05;100349.60;;;18.18
71649;BMP180;59492;45.638;11.714;2022-11-20T03:48:31;100354.40;;;18.20
71649;BMP180;59492;45.638;11.714;2022-11-20T03:53:33;100361.40;;;18.20
71649;BMP180;59492;45.638;11.714;2022-11-20T03:55:58;100361.00;;;18.20
71649;BMP180;59492;45.638;11.714;2022-11-20T03:58:24;100361.40;;;18.18
71649;BMP180;59492;45.638;11.714;2022-11-20T04:00:49;100361.00;;;18.16
71649;BMP180;59492;45.638;11.714;2022-11-20T04:03:15;100363.40;;;18.18
71649;BMP180;59492;45.638;11.714;2022-11-20T04:05:40;100367.40;;;18.16
71649;BMP180;59492;45.638;11.714;2022-11-20T04:08:06;100371.20;;;18.12
71649;BMP180;59492;45.638;11.714;2022-11-20T04:10:31;100372.00;;;18.14
71649;BMP180;59492;45.638;11.714;2022-11-20T04:12:57;100376.00;;;18.20
71649;BMP180;59492;45.638;11.714;2022-11-20T04:15:22;100378.60;;;18.20
71649;BMP180;59492;45.638;11.714;2022-11-20T04:17:48;100379.40;;;18.20
71649;BMP180;59492;45.638;11.714;2022-11-20T04:20:13;100380.00;;;18.20
71649;BMP180;59492;45.638;11.714;2022-11-20T04:22:39;100381.80;;;18.14
71649;BMP180;59492;45.638;11.714;2022-11-20T04:25:05;100384.20;;;18.10
71649;BMP180;59492;45.638;11.714;2022-11-20T04:27:31;100383.20;;;18.10
71649;BMP180;59492;45.638;11.714;2022-11-20T04:29:56;100384.20;;;18.10
71649;BMP180;59492;45.638;11.714;2022-11-20T04:32:22;100384.40;;;18.10
71649;BMP180;59492;45.638;11.714;2022-11-20T04:34:48;100388.80;;;18.10
71649;BMP180;59492;45.638;11.714;2022-11-20T04:37:14;100386.40;;;18.10
71649;BMP180;59492;45.638;11.714;2022-11-20T04:39:39;100390.20;;;18.20
71649;BMP180;59492;45.638;11.714;2022-11-20T04:42:05;100390.80;;;18.18
71649;BMP180;59492;45.638;11.714;2022-11-20T04:44:50;100393.20;;;18.10
71649;BMP180;59492;45.638;11.714;2022-11-20T04:47:16;100394.60;;;18.10
71649;BMP180;59492;45.638;11.714;2022-11-20T04:49:41;100396.00;;;18.10
71649;BMP180;59492;45.638;11.714;2022-11-20T04:52:07;100398.60;;;18.10
71649;BMP180;59492;45.638;11.714;2022-11-20T04:54:32;100393.40;;;18.08
71649;BMP180;59492;45.638;11.714;2022-11-20T04:56:58;100389.60;;;18.04
71649;BMP180;59492;45.638;11.714;2022-11-20T04:59:23;100393.20;;;18.00
71649;BMP180;59492;45.638;11.714;2022-11-20T05:01:49;100396.00;;;18.10
71649;BMP180;59492;45.638;11.714;2022-11-20T05:04:14;100395.40;;;18.10
71649;BMP180;59492;45.638;11.714;2022-11-20T05:06:40;100395.00;;;18.10
71649;BMP180;59492;45.638;11.714;2022-11-20T05:09:06;100399.40;;;18.10
71649;BMP180;59492;45.638;11.714;2022-11-20T05:11:31;100400.60;;;18.08
71649;BMP180;59492;45.638;11.714;2022-11-20T05:13:58;100398.80;;;18.08
71649;BMP180;59492;45.638;11.714;2022-11-20T05:16:25;100401.20;;;18.04
71649;BMP180;59492;45.638;11.714;2022-11-20T05:18:52;100403.20;;;18.02
71649;BMP180;59492;45.638;11.714;2022-11-20T05:21:18;100400.20;;;18.00
71649;BMP180;59492;45.638;11.714;2022-11-20T05:23:45;100396.20;;;18.00
71649;BMP180;59492;45.638;11.714;2022-11-20T05:26:16;100395.80;;;18.06
71649;BMP180;59492;45.638;11.714;2022-11-20T05:28:42;100398.20;;;18.10
71649;BMP180;59492;45.638;11.714;2022-11-20T05:31:12;100397.00;;;18.06
71649;BMP180;59492;45.638;11.714;2022-11-20T05:33:40;100397.00;;;18.00
71649;BMP180;59492;45.638;11.714;2022-11-20T05:36:07;100400.40;;;18.00
71649;BMP180;59492;45.638;11.714;2022-11-20T05:38:33;100402.00;;;18.00
71649;BMP180;59492;45.638;11.714;2022-11-20T05:43:38;100400.60;;;18.00
71649;BMP180;59492;45.638;11.714;2022-11-20T05:46:05;100401.60;;;18.00
71649;BMP180;59492;45.638;11.714;2022-11-20T05:48:31;100399.20;;;18.00
71649;BMP180;59492;45.638;11.714;2022-11-20T05:50:58;100403.80;;;18.00
71649;BMP180;59492;45.638;11.714;2022-11-20T05:53:24;100400.80;;;18.04
71649;BMP180;59492;45.638;11.714;2022-11-20T05:56:01;100403.20;;;18.00
71649;BMP180;59492;45.638;11.714;2022-11-20T05:58:28;100402.00;;;18.00
71649;BMP180;59492;45.638;11.714;2022-11-20T06:00:54;100408.80;;;18.00
71649;BMP180;59492;45.638;11.714;2022-11-20T06:03:20;100412.20;;;17.94
71649;BMP180;59492;45.638;11.714;2022-11-20T06:05:46;100413.40;;;17.90
71649;BMP180;59492;45.638;11.714;2022-11-20T06:08:12;100411.80;;;17.90
71649;BMP180;59492;45.638;11.714;2022-11-20T06:10:37;100412.80;;;17.90
71649;BMP180;59492;45.638;11.714;2022-11-20T06:13:03;100420.40;;;17.90
71649;BMP180;59492;45.638;11.714;2022-11-20T06:15:28;100415.00;;;17.90
71649;BMP180;59492;45.638;11.714;2022-11-20T06:17:55;100416.00;;;18.00
71649;BMP180;59492;45.638;11.714;2022-11-20T06:20:24;100419.20;;;18.00
71649;BMP180;59492;45.638;11.714;2022-11-20T06:22:51;100417.80;;;18.00
71649;BMP180;59492;45.638;11.714;2022-11-20T06:25:18;100417.00;;;17.96
71649;BMP180;59492;45.638;11.714;2022-11-20T06:27:43;100421.00;;;17.92
71649;BMP180;59492;45.638;11.714;2022-11-20T06:30:09;100418.40;;;17.90
71649;BMP180;59492;45.638;11.714;2022-11-20T06:32:36;100417.60;;;17.90
71649;BMP180;59492;45.638;11.714;2022-11-20T06:35:02;100421.80;;;17.90
71649;BMP180;59492;45.638;11.714;2022-11-20T06:37:27;100426.20;;;17.90
71649;BMP180;59492;45.638;11.714;2022-11-20T06:39:53;100429.20;;;17.90
71649;BMP180;59492;45.638;11.714;2022-11-20T06:42:18;100428.60;;;17.90
71649;BMP180;59492;45.638;11.714;2022-11-20T06:44:44;100429.00;;;18.00
71649;BMP180;59492;45.638;11.714;2022-11-20T06:47:10;100432.20;;;17.96
71649;BMP180;59492;45.638;11.714;2022-11-20T06:49:36;100432.60;;;17.98
71649;BMP180;59492;45.638;11.714;2022-11-20T06:52:04;100439.20;;;17.96
71649;BMP180;59492;45.638;11.714;2022-11-20T06:54:30;100440.80;;;17.98
71649;BMP180;59492;45.638;11.714;2022-11-20T06:56:56;100446.80;;;18.00
71649;BMP180;59492;45.638;11.714;2022-11-20T06:59:26;100447.60;;;18.00
71649;BMP180;59492;45.638;11.714;2022-11-20T07:01:57;100453.80;;;18.00
71649;BMP180;59492;45.638;11.714;2022-11-20T07:04:25;100462.60;;;18.00
71649;BMP180;59492;45.638;11.714;2022-11-20T07:06:51;100462.80;;;18.00
71649;BMP180;59492;45.638;11.714;2022-11-20T07:09:17;100462.00;;;18.10
71649;BMP180;59492;45.638;11.714;2022-11-20T07:11:42;100468.60;;;18.20
71649;BMP180;59492;45.638;11.714;2022-11-20T07:14:09;100472.20;;;18.20
71649;BMP180;59492;45.638;11.714;2022-11-20T07:16:35;100476.40;;;18.20
71649;BMP180;59492;45.638;11.714;2022-11-20T07:19:02;100477.00;;;18.20
71649;BMP180;59492;45.638;11.714;2022-11-20T07:21:30;100479.20;;;18.20
71649;BMP180;59492;45.638;11.714;2022-11-20T07:23:56;100481.00;;;18.20
71649;BMP180;59492;45.638;11.714;2022-11-20T07:26:27;100487.00;;;18.20
71649;BMP180;59492;45.638;11.714;2022-11-20T07:29:01;100490.20;;;18.22
71649;BMP180;59492;45.638;11.714;2022-11-20T07:31:28;100496.00;;;18.30
71649;BMP180;59492;45.638;11.714;2022-11-20T07:33:54;100492.00;;;18.40
71649;BMP180;59492;45.638;11.714;2022-11-20T07:36:21;100500.20;;;18.76
71649;BMP180;59492;45.638;11.714;2022-11-20T07:38:47;100504.40;;;19.10
71649;BMP180;59492;45.638;11.714;2022-11-20T07:41:13;100503.60;;;19.40
71649;BMP180;59492;45.638;11.714;2022-11-20T07:43:40;100498.20;;;19.70
71649;BMP180;59492;45.638;11.714;2022-11-20T07:46:05;100499.60;;;20.02
71649;BMP180;59492;45.638;11.714;2022-11-20T07:48:31;100495.80;;;20.28
71649;BMP180;59492;45.638;11.714;2022-11-20T07:50:57;100504.80;;;20.40
71649;BMP180;59492;45.638;11.714;2022-11-20T07:53:24;100499.80;;;20.60
71649;BMP180;59492;45.638;11.714;2022-11-20T07:55:50;100501.80;;;20.96
71649;BMP180;59492;45.638;11.714;2022-11-20T07:58:18;100503.80;;;21.28
71649;BMP180;59492;45.638;11.714;2022-11-20T08:00:45;100508.40;;;21.58
71649;BMP180;59492;45.638;11.714;2022-11-20T08:03:11;100507.20;;;21.84
71649;BMP180;59492;45.638;11.714;2022-11-20T08:05:37;100508.00;;;22.10
71649;BMP180;59492;45.638;11.714;2022-11-20T08:08:03;100510.80;;;22.30
71649;BMP180;59492;45.638;11.714;2022-11-20T08:10:28;100516.60;;;22.54
71649;BMP180;59492;45.638;11.714;2022-11-20T08:12:55;100514.80;;;22.74
71649;BMP180;59492;45.638;11.714;2022-11-20T08:15:39;100524.00;;;23.06
71649;BMP180;59492;45.638;11.714;2022-11-20T08:18:10;100525.80;;;23.22
71649;BMP180;59492;45.638;11.714;2022-11-20T08:20:37;100524.60;;;23.42
71649;BMP180;59492;45.638;11.714;2022-11-20T08:23:05;100530.00;;;23.60
71649;BMP180;59492;45.638;11.714;2022-11-20T08:25:32;100535.40;;;23.78
71649;BMP180;59492;45.638;11.714;2022-11-20T08:28:05;100541.00;;;23.96
71649;BMP180;59492;45.638;11.714;2022-11-20T08:30:31;100541.20;;;24.16
71649;BMP180;59492;45.638;11.714;2022-11-20T08:33:05;100541.20;;;24.32
71649;BMP180;59492;45.638;11.714;2022-11-20T08:35:35;100540.00;;;24.52
71649;BMP180;59492;45.638;11.714;2022-11-20T08:38:05;100548.40;;;24.68
71649;BMP180;59492;45.638;11.714;2022-11-20T08:40:31;100549.00;;;24.82
71649;BMP180;59492;45.638;11.714;2022-11-20T08:42:57;100552.80;;;24.98
71649;BMP180;59492;45.638;11.714;2022-11-20T08:45:24;100559.00;;;25.12
71649;BMP180;59492;45.638;11.714;2022-11-20T08:47:50;100563.60;;;25.30
71649;BMP180;59492;45.638;11.714;2022-11-20T08:50:16;100561.80;;;25.40
71649;BMP180;59492;45.638;11.714;2022-11-20T08:52:42;100565.60;;;25.56
71649;BMP180;59492;45.638;11.714;2022-11-20T08:55:08;100565.80;;;25.66
71649;BMP180;59492;45.638;11.714;2022-11-20T08:57:35;100570.20;;;25.78
71649;BMP180;59492;45.638;11.714;2022-11-20T09:00:02;100576.80;;;25.90
71649;BMP180;59492;45.638;11.714;2022-11-20T09:02:28;100576.40;;;25.98
71649;BMP180;59492;45.638;11.714;2022-11-20T09:04:54;100575.80;;;26.10
71649;BMP180;59492;45.638;11.714;2022-11-20T09:07:20;100577.60;;;26.20
71649;BMP180;59492;45.638;11.714;2022-11-20T09:55:20;100601.60;;;22.08
71649;BMP180;59492;45.638;11.714;2022-11-20T09:57:48;100599.40;;;22.44
71649;BMP180;59492;45.638;11.714;2022-11-20T10:00:16;100597.80;;;22.78
71649;BMP180;59492;45.638;11.714;2022-11-20T10:03:06;100596.00;;;23.02
71649;BMP180;59492;45.638;11.714;2022-11-20T10:08:28;100595.40;;;23.46
71649;BMP180;59492;45.638;11.714;2022-11-20T10:11:05;100595.20;;;23.64
71649;BMP180;59492;45.638;11.714;2022-11-20T10:16:51;100602.00;;;23.86
71649;BMP180;59492;45.638;11.714;2022-11-20T10:19:30;100604.00;;;23.90
71649;BMP180;59492;45.638;11.714;2022-11-20T10:30:14;100588.40;;;24.08
71649;BMP180;59492;45.638;11.714;2022-11-20T10:32:47;100585.20;;;24.02
71649;BMP180;59492;45.638;11.714;2022-11-20T10:35:24;100584.80;;;24.00
71649;BMP180;59492;45.638;11.714;2022-11-20T10:37:55;100578.20;;;24.00
71649;BMP180;59492;45.638;11.714;2022-11-20T10:43:23;100579.00;;;24.00
71649;BMP180;59492;45.638;11.714;2022-11-20T10:46:05;100578.00;;;24.00
71649;BMP180;59492;45.638;11.714;2022-11-20T10:48:33;100579.40;;;24.00
71649;BMP180;59492;45.638;11.714;2022-11-20T10:54:19;100577.20;;;23.94
71649;BMP180;59492;45.638;11.714;2022-11-20T10:56:51;100576.00;;;23.90
71649;BMP180;59492;45.638;11.714;2022-11-20T11:01:53;100572.40;;;23.82
71649;BMP180;59492;45.638;11.714;2022-11-20T11:04:40;100574.80;;;23.80
71649;BMP180;59492;45.638;11.714;2022-11-20T11:07:30;100573.00;;;23.80
71649;BMP180;59492;45.638;11.714;2022-11-20T11:09:59;100573.40;;;23.70
71649;BMP180;59492;45.638;11.714;2022-11-20T11:12:26;100574.80;;;23.70
71649;BMP180;59492;45.638;11.714;2022-11-20T11:14:56;100573.80;;;23.66
71649;BMP180;59492;45.638;11.714;2022-11-20T11:17:33;100569.40;;;23.60
71649;BMP180;59492;45.638;11.714;2022-11-20T11:20:15;100568.20;;;23.60
71649;BMP180;59492;45.638;11.714;2022-11-20T11:22:50;100565.00;;;23.60
71649;BMP180;59492;45.638;11.714;2022-11-20T11:25:30;100566.60;;;23.50
71649;BMP180;59492;45.638;11.714;2022-11-20T11:28:04;100556.80;;;23.50
71649;BMP180;59492;45.638;11.714;2022-11-20T11:30:42;100549.20;;;23.48
71649;BMP180;59492;45.638;11.714;2022-11-20T11:33:17;100548.20;;;23.40
71649;BMP180;59492;45.638;11.714;2022-11-20T11:35:49;100546.20;;;23.40
71649;BMP180;59492;45.638;11.714;2022-11-20T11:38:41;100548.00;;;23.30
71649;BMP180;59492;45.638;11.714;2022-11-20T11:41:21;100546.40;;;23.30
71649;BMP180;59492;45.638;11.714;2022-11-20T11:43:56;100539.60;;;23.22
71649;BMP180;59492;45.638;11.714;2022-11-20T11:46:52;100534.00;;;23.20
71649;BMP180;59492;45.638;11.714;2022-11-20T11:49:19;100534.40;;;23.10
71649;BMP180;59492;45.638;11.714;2022-11-20T11:54:55;100535.40;;;23.00
71649;BMP180;59492;45.638;11.714;2022-11-20T11:57:33;100529.00;;;23.00
71649;BMP180;59492;45.638;11.714;2022-11-20T12:00:10;100530.60;;;22.90
71649;BMP180;59492;45.638;11.714;2022-11-20T12:02:38;100531.40;;;22.90
71649;BMP180;59492;45.638;11.714;2022-11-20T12:05:42;100529.20;;;22.80
71649;BMP180;59492;45.638;11.714;2022-11-20T12:08:23;100527.00;;;22.80
71649;BMP180;59492;45.638;11.714;2022-11-20T12:15:59;100529.40;;;22.60
71649;BMP180;59492;45.638;11.714;2022-11-20T12:18:25;100529.40;;;22.56
71649;BMP180;59492;45.638;11.714;2022-11-20T12:21:36;100528.20;;;22.50
71649;BMP180;59492;45.638;11.714;2022-11-20T12:27:01;100523.60;;;22.40
71649;BMP180;59492;45.638;11.714;2022-11-20T12:37:45;100527.40;;;22.30
71649;BMP180;59492;45.638;11.714;2022-11-20T12:40:40;100519.80;;;22.20
71649;BMP180;59492;45.638;11.714;2022-11-20T12:49:34;100513.40;;;22.40
71649;BMP180;59492;45.638;11.714;2022-11-20T12:52:22;100516.00;;;22.30
71649;BMP180;59492;45.638;11.714;2022-11-20T12:55:21;100512.20;;;22.10
71649;BMP180;59492;45.638;11.714;2022-11-20T12:57:54;100509.20;;;22.00
71649;BMP180;59492;45.638;11.714;2022-11-20T13:00:26;100505.60;;;21.90
71649;BMP180;59492;45.638;11.714;2022-11-20T13:06:23;100507.60;;;21.72
71649;BMP180;59492;45.638;11.714;2022-11-20T13:08:55;100506.80;;;21.70
71649;BMP180;59492;45.638;11.714;2022-11-20T13:19:08;100489.20;;;21.50
71649;BMP180;59492;45.638;11.714;2022-11-20T13:21:43;100480.40;;;21.46
71649;BMP180;59492;45.638;11.714;2022-11-20T13:24:40;100481.80;;;21.40
71649;BMP180;59492;45.638;11.714;2022-11-20T13:27:21;100481.00;;;21.30
71649;BMP180;59492;45.638;11.714;2022-11-20T13:30:03;100479.00;;;21.30
71649;BMP180;59492;45.638;11.714;2022-11-20T13:32:48;100478.40;;;21.28
71649;BMP180;59492;45.638;11.714;2022-11-20T13:35:26;100480.40;;;21.20
71649;BMP180;59492;45.638;11.714;2022-11-20T13:40:58;100488.40;;;21.10
71649;BMP180;59492;45.638;11.714;2022-11-20T13:43:36;100490.00;;;21.10
71649;BMP180;59492;45.638;11.714;2022-11-20T13:46:05;100487.80;;;21.08
71649;BMP180;59492;45.638;11.714;2022-11-20T13:48:33;100486.40;;;21.00
71649;BMP180;59492;45.638;11.714;2022-11-20T14:00:03;100481.80;;;20.96
71649;BMP180;59492;45.638;11.714;2022-11-20T14:02:30;100481.60;;;20.90
71649;BMP180;59492;45.638;11.714;2022-11-20T14:04:59;100478.20;;;20.88
71649;BMP180;59492;45.638;11.714;2022-11-20T14:07:37;100476.80;;;20.80
71649;BMP180;59492;45.638;11.714;2022-11-20T14:10:05;100473.20;;;20.80
71649;BMP180;59492;45.638;11.714;2022-11-20T14:12:33;100468.20;;;20.74
71649;BMP180;59492;45.638;11.714;2022-11-20T14:14:59;100465.00;;;20.70
71649;BMP180;59492;45.638;11.714;2022-11-20T14:17:33;100466.80;;;20.70
71649;BMP180;59492;45.638;11.714;2022-11-20T14:20:06;100464.80;;;20.68
71649;BMP180;59492;45.638;11.714;2022-11-20T14:22:32;100465.80;;;20.60
71649;BMP180;59492;45.638;11.714;2022-11-20T14:25:06;100461.60;;;20.60
71649;BMP180;59492;45.638;11.714;2022-11-20T14:27:45;100468.40;;;20.58
71649;BMP180;59492;45.638;11.714;2022-11-20T14:30:17;100468.60;;;20.56
71649;BMP180;59492;45.638;11.714;2022-11-20T14:32:44;100472.40;;;20.50
71649;BMP180;59492;45.638;11.714;2022-11-20T14:35:35;100470.00;;;20.50
71649;BMP180;59492;45.638;11.714;2022-11-20T14:38:03;100472.40;;;20.40
71649;BMP180;59492;45.638;11.714;2022-11-20T14:40:34;100466.20;;;20.40
71649;BMP180;59492;45.638;11.714;2022-11-20T14:43:02;100464.60;;;20.40
71649;BMP180;59492;45.638;11.714;2022-11-20T14:45:31;100468.00;;;20.40
71649;BMP180;59492;45.638;11.714;2022-11-20T14:47:58;100465.20;;;20.40
71649;BMP180;59492;45.638;11.714;2022-11-20T14:50:28;100469.60;;;20.40
71649;BMP180;59492;45.638;11.714;2022-11-20T14:53:00;100463.80;;;20.32
71649;BMP180;59492;45.638;11.714;2022-11-20T14:55:34;100465.20;;;20.30
71649;BMP180;59492;45.638;11.714;2022-11-20T14:58:22;100472.40;;;20.30
71649;BMP180;59492;45.638;11.714;2022-11-20T15:01:02;100478.20;;;20.20
71649;BMP180;59492;45.638;11.714;2022-11-20T15:03:36;100480.00;;;20.20
71649;BMP180;59492;45.638;11.714;2022-11-20T15:06:02;100483.20;;;20.16
71649;BMP180;59492;45.638;11.714;2022-11-20T15:08:27;100487.20;;;20.00
71649;BMP180;59492;45.638;11.714;2022-11-20T15:10:54;100490.00;;;20.04
71649;BMP180;59492;45.638;11.714;2022-11-20T15:13:31;100495.60;;;20.02
71649;BMP180;59492;45.638;11.714;2022-11-20T15:16:00;100496.40;;;20.00
71649;BMP180;59492;45.638;11.714;2022-11-20T15:18:53;100499.20;;;20.00
71649;BMP180;59492;45.638;11.714;2022-11-20T15:21:19;100501.20;;;20.00
71649;BMP180;59492;45.638;11.714;2022-11-20T15:23:49;100508.00;;;20.00
71649;BMP180;59492;45.638;11.714;2022-11-20T15:26:22;100506.80;;;20.04
71649;BMP180;59492;45.638;11.714;2022-11-20T15:28:50;100504.00;;;20.00
71649;BMP180;59492;45.638;11.714;2022-11-20T15:31:18;100497.40;;;20.00
71649;BMP180;59492;45.638;11.714;2022-11-20T15:33:44;100495.80;;;19.92
71649;BMP180;59492;45.638;11.714;2022-11-20T15:36:10;100495.60;;;19.90
71649;BMP180;59492;45.638;11.714;2022-11-20T15:38:36;100499.60;;;19.90
71649;BMP180;59492;45.638;11.714;2022-11-20T15:41:02;100495.40;;;19.84
71649;BMP180;59492;45.638;11.714;2022-11-20T15:43:27;100493.60;;;19.80
71649;BMP180;59492;45.638;11.714;2022-11-20T15:45:57;100492.60;;;19.80
71649;BMP180;59492;45.638;11.714;2022-11-20T15:50:59;100488.00;;;19.70
71649;BMP180;59492;45.638;11.714;2022-11-20T15:53:27;100490.40;;;19.70
71649;BMP180;59492;45.638;11.714;2022-11-20T15:55:52;100493.20;;;19.66
71649;BMP180;59492;45.638;11.714;2022-11-20T15:58:18;100489.40;;;19.70
71649;BMP180;59492;45.638;11.714;2022-11-20T16:00:44;100492.40;;;19.70
71649;BMP180;59492;45.638;11.714;2022-11-20T16:03:14;100496.00;;;19.70
71649;BMP180;59492;45.638;11.714;2022-11-20T16:05:39;100502.00;;;19.62
71649;BMP180;59492;45.638;11.714;2022-11-20T16:08:05;100504.40;;;19.60
71649;BMP180;59492;45.638;11.714;2022-11-20T16:10:31;100511.60;;;19.60